sensor_id;sensor_type;location;lat;lon;timestamp;temperature;humidity
22071;DHT22;11200;51.488;6.668;2022-07-23T00:02:06;18.70;99.90
22071;DHT22;11200;51.488;6.668;2022-07-23T00:04:32;18.70;99.90
22071;DHT22;11200;51.488;6.668;2022-07-23T00:06:58;18.60;99.90
22071;DHT22;11200;51.488;6.668;2022-07-23T00:09:23;18.70;99.90
22071;DHT22;11200;51.488;6.668;2022-07-23T00:11:49;18.70;99.90
22071;DHT22;11200;51.488;6.668;2022-07-23T00:14:15;18.60;99.90
22071;DHT22;11200;51.488;6.668;2022-07-23T00:16:40;18.60;99.90
22071;DHT22;11200;51.488;6.668;2022-07-23T00:19:06;18.60;99.90
22071;DHT22;11200;51.488;6.668;2022-07-23T00:21:31;18.60;99.90
22071;DHT22;11200;51.488;6.668;2022-07-23T00:23:57;18.50;99.90
22071;DHT22;11200;51.488;6.668;2022-07-23T00:26:23;18.50;99.90
22071;DHT22;11200;51.488;6.668;2022-07-23T00:28:48;18.50;99.90
22071;DHT22;11200;51.488;6.668;2022-07-23T00:31:14;18.40;99.90
22071;DHT22;11200;51.488;6.668;2022-07-23T00:33:39;18.40;99.90
22071;DHT22;11200;51.488;6.668;2022-07-23T00:36:05;18.60;99.90
22071;DHT22;11200;51.488;6.668;2022-07-23T00:38:31;18.40;99.90
22071;DHT22;11200;51.488;6.668;2022-07-23T00:40:57;18.40;99.90
22071;DHT22;11200;51.488;6.668;2022-07-23T00:43:23;18.40;99.90
22071;DHT22;11200;51.488;6.668;2022-07-23T00:45:49;18.30;99.90
22071;DHT22;11200;51.488;6.668;2022-07-23T00:48:14;18.30;99.90
22071;DHT22;11200;51.488;6.668;2022-07-23T00:50:40;18.30;99.90
22071;DHT22;11200;51.488;6.668;2022-07-23T00:53:06;18.20;99.90
22071;DHT22;11200;51.488;6.668;2022-07-23T00:55:33;18.20;99.90
22071;DHT22;11200;51.488;6.668;2022-07-23T00:57:59;18.30;99.90
22071;DHT22;11200;51.488;6.668;2022-07-23T01:00:26;18.20;99.90
22071;DHT22;11200;51.488;6.668;2022-07-23T01:02:51;18.20;99.90
22071;DHT22;11200;51.488;6.668;2022-07-23T01:05:17;18.10;99.90
22071;DHT22;11200;51.488;6.668;2022-07-23T01:07:50;18.10;99.90
22071;DHT22;11200;51.488;6.668;2022-07-23T01:10:16;18.10;99.90
22071;DHT22;11200;51.488;6.668;2022-07-23T01:13:08;18.10;99.90
22071;DHT22;11200;51.488;6.668;2022-07-23T01:15:35;18.00;99.90
22071;DHT22;11200;51.488;6.668;2022-07-23T01:18:03;18.00;99.90
22071;DHT22;11200;51.488;6.668;2022-07-23T01:20:29;17.90;99.90
22071;DHT22;11200;51.488;6.668;2022-07-23T01:22:55;17.90;99.90
22071;DHT22;11200;51.488;6.668;2022-07-23T01:25:21;17.90;99.90
22071;DHT22;11200;51.488;6.668;2022-07-23T01:27:48;17.90;99.90
22071;DHT22;11200;51.488;6.668;2022-07-23T01:30:14;17.90;99.90
22071;DHT22;11200;51.488;6.668;2022-07-23T01:32:39;17.80;99.90
22071;DHT22;11200;51.488;6.668;2022-07-23T01:35:06;17.80;99.90
22071;DHT22;11200;51.488;6.668;2022-07-23T01:37:31;17.80;99.90
22071;DHT22;11200;51.488;6.668;2022-07-23T01:39:57;17.80;99.90
22071;DHT22;11200;51.488;6.668;2022-07-23T01:42:23;17.70;99.90
22071;DHT22;11200;51.488;6.668;2022-07-23T01:44:49;17.70;99.90
22071;DHT22;11200;51.488;6.668;2022-07-23T01:47:15;17.70;99.90
22071;DHT22;11200;51.488;6.668;2022-07-23T01:49:40;17.80;99.90
22071;DHT22;11200;51.488;6.668;2022-07-23T01:52:06;17.70;99.90
22071;DHT22;11200;51.488;6.668;2022-07-23T01:54:36;17.60;99.90
22071;DHT22;11200;51.488;6.668;2022-07-23T01:57:02;17.60;99.90
22071;DHT22;11200;51.488;6.668;2022-07-23T01:59:28;17.60;99.90
22071;DHT22;11200;51.488;6.668;2022-07-23T02:01:53;17.50;99.90
22071;DHT22;11200;51.488;6.668;2022-07-23T02:04:23;17.50;99.90
22071;DHT22;11200;51.488;6.668;2022-07-23T02:06:50;17.50;99.90
22071;DHT22;11200;51.488;6.668;2022-07-23T02:09:16;17.50;99.90
22071;DHT22;11200;51.488;6.668;2022-07-23T02:11:42;17.40;99.90
22071;DHT22;11200;51.488;6.668;2022-07-23T02:14:08;17.40;99.90
22071;DHT22;11200;51.488;6.668;2022-07-23T02:16:33;17.40;99.90
22071;DHT22;11200;51.488;6.668;2022-07-23T02:18:59;17.40;99.90
22071;DHT22;11200;51.488;6.668;2022-07-23T02:21:25;17.30;99.90
22071;DHT22;11200;51.488;6.668;2022-07-23T02:23:50;17.50;99.90
22071;DHT22;11200;51.488;6.668;2022-07-23T02:26:16;17.30;99.90
22071;DHT22;11200;51.488;6.668;2022-07-23T02:28:42;17.30;99.90
22071;DHT22;11200;51.488;6.668;2022-07-23T02:31:07;17.20;99.90
22071;DHT22;11200;51.488;6.668;2022-07-23T02:33:34;17.40;99.90
22071;DHT22;11200;51.488;6.668;2022-07-23T02:35:59;17.20;99.90
22071;DHT22;11200;51.488;6.668;2022-07-23T02:38:25;17.10;99.90
22071;DHT22;11200;51.488;6.668;2022-07-23T02:40:51;17.10;99.90
22071;DHT22;11200;51.488;6.668;2022-07-23T02:43:17;17.10;99.90
22071;DHT22;11200;51.488;6.668;2022-07-23T02:45:42;17.10;99.90
22071;DHT22;11200;51.488;6.668;2022-07-23T02:48:08;17.00;99.90
22071;DHT22;11200;51.488;6.668;2022-07-23T02:50:34;17.00;99.90
22071;DHT22;11200;51.488;6.668;2022-07-23T02:53:00;17.00;99.90
22071;DHT22;11200;51.488;6.668;2022-07-23T02:55:25;17.00;99.90
22071;DHT22;11200;51.488;6.668;2022-07-23T02:57:51;16.90;99.90
22071;DHT22;11200;51.488;6.668;2022-07-23T03:00:17;16.90;99.90
22071;DHT22;11200;51.488;6.668;2022-07-23T03:02:42;16.90;99.90
22071;DHT22;11200;51.488;6.668;2022-07-23T03:05:08;17.20;99.90
22071;DHT22;11200;51.488;6.668;2022-07-23T03:07:34;17.10;99.90
22071;DHT22;11200;51.488;6.668;2022-07-23T03:09:59;16.80;99.90
22071;DHT22;11200;51.488;6.668;2022-07-23T03:12:25;16.70;99.90
22071;DHT22;11200;51.488;6.668;2022-07-23T03:14:50;16.70;99.90
22071;DHT22;11200;51.488;6.668;2022-07-23T03:17:17;16.70;99.90
22071;DHT22;11200;51.488;6.668;2022-07-23T03:19:42;16.70;99.90
22071;DHT22;11200;51.488;6.668;2022-07-23T03:22:08;16.60;99.90
22071;DHT22;11200;51.488;6.668;2022-07-23T03:24:33;16.60;99.90
22071;DHT22;11200;51.488;6.668;2022-07-23T03:27:18;16.60;99.90
22071;DHT22;11200;51.488;6.668;2022-07-23T03:29:44;16.60;99.90
22071;DHT22;11200;51.488;6.668;2022-07-23T03:32:09;16.60;99.90
22071;DHT22;11200;51.488;6.668;2022-07-23T03:34:35;16.50;99.90
22071;DHT22;11200;51.488;6.668;2022-07-23T03:37:01;16.50;99.90
22071;DHT22;11200;51.488;6.668;2022-07-23T03:39:26;16.40;99.90
22071;DHT22;11200;51.488;6.668;2022-07-23T03:41:52;16.40;99.90
22071;DHT22;11200;51.488;6.668;2022-07-23T03:44:17;16.40;99.90
22071;DHT22;11200;51.488;6.668;2022-07-23T03:46:43;16.40;99.90
22071;DHT22;11200;51.488;6.668;2022-07-23T03:49:09;16.30;99.90
22071;DHT22;11200;51.488;6.668;2022-07-23T03:51:34;16.30;99.90
22071;DHT22;11200;51.488;6.668;2022-07-23T03:54:00;16.30;99.90
22071;DHT22;11200;51.488;6.668;2022-07-23T03:56:26;16.30;99.90
22071;DHT22;11200;51.488;6.668;2022-07-23T03:58:51;16.20;99.90
22071;DHT22;11200;51.488;6.668;2022-07-23T04:01:17;16.20;99.90
22071;DHT22;11200;51.488;6.668;2022-07-23T04:03:43;16.20;99.90
22071;DHT22;11200;51.488;6.668;2022-07-23T04:06:08;16.20;99.90
22071;DHT22;11200;51.488;6.668;2022-07-23T04:08:34;16.10;99.90
22071;DHT22;11200;51.488;6.668;2022-07-23T04:10:59;16.10;99.90
22071;DHT22;11200;51.488;6.668;2022-07-23T04:13:25;16.10;99.90
22071;DHT22;11200;51.488;6.668;2022-07-23T04:15:50;16.00;99.90
22071;DHT22;11200;51.488;6.668;2022-07-23T04:18:17;16.00;99.90
22071;DHT22;11200;51.488;6.668;2022-07-23T04:20:43;16.00;99.90
22071;DHT22;11200;51.488;6.668;2022-07-23T04:23:09;16.20;99.90
22071;DHT22;11200;51.488;6.668;2022-07-23T04:25:35;16.10;99.90
22071;DHT22;11200;51.488;6.668;2022-07-23T04:28:01;15.90;99.90
22071;DHT22;11200;51.488;6.668;2022-07-23T04:30:26;16.50;99.90
22071;DHT22;11200;51.488;6.668;2022-07-23T04:32:52;15.90;99.90
22071;DHT22;11200;51.488;6.668;2022-07-23T04:35:18;15.90;99.90
22071;DHT22;11200;51.488;6.668;2022-07-23T04:37:44;15.90;99.90
22071;DHT22;11200;51.488;6.668;2022-07-23T04:40:10;15.80;99.90
22071;DHT22;11200;51.488;6.668;2022-07-23T04:42:36;15.80;99.90
22071;DHT22;11200;51.488;6.668;2022-07-23T04:45:02;15.80;99.90
22071;DHT22;11200;51.488;6.668;2022-07-23T04:47:29;15.80;99.90
22071;DHT22;11200;51.488;6.668;2022-07-23T04:49:54;15.80;99.90
22071;DHT22;11200;51.488;6.668;2022-07-23T04:52:20;15.80;99.90
22071;DHT22;11200;51.488;6.668;2022-07-23T04:54:46;15.80;99.90
22071;DHT22;11200;51.488;6.668;2022-07-23T04:57:11;15.80;99.90
22071;DHT22;11200;51.488;6.668;2022-07-23T04:59:37;15.70;99.90
22071;DHT22;11200;51.488;6.668;2022-07-23T05:02:02;15.70;99.90
22071;DHT22;11200;51.488;6.668;2022-07-23T05:04:28;15.70;99.90
22071;DHT22;11200;51.488;6.668;2022-07-23T05:06:54;15.70;99.90
22071;DHT22;11200;51.488;6.668;2022-07-23T05:09:19;15.70;99.90
22071;DHT22;11200;51.488;6.668;2022-07-23T05:11:45;15.70;99.90
22071;DHT22;11200;51.488;6.668;2022-07-23T05:14:10;15.70;99.90
22071;DHT22;11200;51.488;6.668;2022-07-23T05:16:38;15.70;99.90
22071;DHT22;11200;51.488;6.668;2022-07-23T05:19:04;15.70;99.90
22071;DHT22;11200;51.488;6.668;2022-07-23T05:21:29;15.70;99.90
22071;DHT22;11200;51.488;6.668;2022-07-23T05:23:55;15.90;99.90
22071;DHT22;11200;51.488;6.668;2022-07-23T05:26:20;15.70;99.90
22071;DHT22;11200;51.488;6.668;2022-07-23T05:28:46;16.00;99.90
22071;DHT22;11200;51.488;6.668;2022-07-23T05:31:12;15.70;99.90
22071;DHT22;11200;51.488;6.668;2022-07-23T05:33:37;15.70;99.90
22071;DHT22;11200;51.488;6.668;2022-07-23T05:36:03;15.70;99.90
22071;DHT22;11200;51.488;6.668;2022-07-23T05:38:29;15.70;99.90
22071;DHT22;11200;51.488;6.668;2022-07-23T05:40:55;15.70;99.90
22071;DHT22;11200;51.488;6.668;2022-07-23T05:43:21;15.70;99.90
22071;DHT22;11200;51.488;6.668;2022-07-23T05:45:47;15.70;99.90
22071;DHT22;11200;51.488;6.668;2022-07-23T05:48:12;15.80;99.90
22071;DHT22;11200;51.488;6.668;2022-07-23T05:50:38;15.80;99.90
22071;DHT22;11200;51.488;6.668;2022-07-23T05:53:04;15.70;99.90
22071;DHT22;11200;51.488;6.668;2022-07-23T05:55:29;15.80;99.90
22071;DHT22;11200;51.488;6.668;2022-07-23T05:58:00;15.80;99.90
22071;DHT22;11200;51.488;6.668;2022-07-23T06:00:27;15.80;99.90
22071;DHT22;11200;51.488;6.668;2022-07-23T06:02:53;15.80;99.90
22071;DHT22;11200;51.488;6.668;2022-07-23T06:05:18;16.00;99.90
22071;DHT22;11200;51.488;6.668;2022-07-23T06:07:44;15.90;99.90
22071;DHT22;11200;51.488;6.668;2022-07-23T06:10:10;15.90;99.90
22071;DHT22;11200;51.488;6.668;2022-07-23T06:12:36;16.00;99.90
22071;DHT22;11200;51.488;6.668;2022-07-23T06:15:02;16.00;99.90
22071;DHT22;11200;51.488;6.668;2022-07-23T06:17:28;16.00;99.90
22071;DHT22;11200;51.488;6.668;2022-07-23T06:19:54;16.00;99.90
22071;DHT22;11200;51.488;6.668;2022-07-23T06:22:20;16.00;99.90
22071;DHT22;11200;51.488;6.668;2022-07-23T06:24:45;16.00;99.90
22071;DHT22;11200;51.488;6.668;2022-07-23T06:27:11;16.10;99.90
22071;DHT22;11200;51.488;6.668;2022-07-23T06:29:37;16.10;99.90
22071;DHT22;11200;51.488;6.668;2022-07-23T06:32:03;16.10;99.90
22071;DHT22;11200;51.488;6.668;2022-07-23T06:34:28;16.10;99.90
22071;DHT22;11200;51.488;6.668;2022-07-23T06:36:54;16.20;99.90
22071;DHT22;11200;51.488;6.668;2022-07-23T06:39:19;16.20;99.90
22071;DHT22;11200;51.488;6.668;2022-07-23T06:41:45;16.40;99.90
22071;DHT22;11200;51.488;6.668;2022-07-23T06:44:10;16.30;99.90
22071;DHT22;11200;51.488;6.668;2022-07-23T06:46:36;16.30;99.90
22071;DHT22;11200;51.488;6.668;2022-07-23T06:49:02;16.30;99.90
22071;DHT22;11200;51.488;6.668;2022-07-23T06:51:29;16.90;99.90
22071;DHT22;11200;51.488;6.668;2022-07-23T06:53:55;16.60;99.90
22071;DHT22;11200;51.488;6.668;2022-07-23T06:56:20;16.40;99.90
22071;DHT22;11200;51.488;6.668;2022-07-23T06:58:46;16.50;99.90
22071;DHT22;11200;51.488;6.668;2022-07-23T07:01:12;16.50;99.90
22071;DHT22;11200;51.488;6.668;2022-07-23T07:03:37;16.50;99.90
22071;DHT22;11200;51.488;6.668;2022-07-23T07:06:03;16.60;99.90
22071;DHT22;11200;51.488;6.668;2022-07-23T07:08:28;16.60;99.90
22071;DHT22;11200;51.488;6.668;2022-07-23T07:10:54;16.60;99.90
22071;DHT22;11200;51.488;6.668;2022-07-23T07:13:20;16.70;99.90
22071;DHT22;11200;51.488;6.668;2022-07-23T07:15:45;16.80;99.90
22071;DHT22;11200;51.488;6.668;2022-07-23T07:18:11;16.70;99.90
22071;DHT22;11200;51.488;6.668;2022-07-23T07:20:36;16.80;99.90
22071;DHT22;11200;51.488;6.668;2022-07-23T07:23:02;16.80;99.90
22071;DHT22;11200;51.488;6.668;2022-07-23T07:25:28;16.90;99.90
22071;DHT22;11200;51.488;6.668;2022-07-23T07:27:53;16.90;99.90
22071;DHT22;11200;51.488;6.668;2022-07-23T07:30:19;16.90;99.90
22071;DHT22;11200;51.488;6.668;2022-07-23T07:32:44;17.00;99.90
22071;DHT22;11200;51.488;6.668;2022-07-23T07:35:10;17.10;99.90
22071;DHT22;11200;51.488;6.668;2022-07-23T07:37:36;17.20;99.90
22071;DHT22;11200;51.488;6.668;2022-07-23T07:40:03;17.20;99.90
22071;DHT22;11200;51.488;6.668;2022-07-23T07:42:28;17.30;99.90
22071;DHT22;11200;51.488;6.668;2022-07-23T07:44:54;17.50;99.90
22071;DHT22;11200;51.488;6.668;2022-07-23T07:47:20;17.50;99.90
22071;DHT22;11200;51.488;6.668;2022-07-23T07:49:45;17.60;99.90
22071;DHT22;11200;51.488;6.668;2022-07-23T07:52:11;17.70;99.90
22071;DHT22;11200;51.488;6.668;2022-07-23T07:54:37;17.80;99.90
22071;DHT22;11200;51.488;6.668;2022-07-23T07:57:03;18.00;99.90
22071;DHT22;11200;51.488;6.668;2022-07-23T07:59:28;18.10;99.90
22071;DHT22;11200;51.488;6.668;2022-07-23T08:01:54;18.20;99.90
22071;DHT22;11200;51.488;6.668;2022-07-23T08:04:20;18.40;99.90
22071;DHT22;11200;51.488;6.668;2022-07-23T08:06:45;18.70;99.90
22071;DHT22;11200;51.488;6.668;2022-07-23T08:09:11;18.70;99.90
22071;DHT22;11200;51.488;6.668;2022-07-23T08:11:37;18.80;99.90
22071;DHT22;11200;51.488;6.668;2022-07-23T08:14:02;18.90;99.90
22071;DHT22;11200;51.488;6.668;2022-07-23T08:16:28;19.10;99.90
22071;DHT22;11200;51.488;6.668;2022-07-23T08:18:54;19.20;99.90
22071;DHT22;11200;51.488;6.668;2022-07-23T08:21:19;19.30;99.90
22071;DHT22;11200;51.488;6.668;2022-07-23T08:23:45;19.50;99.90
22071;DHT22;11200;51.488;6.668;2022-07-23T08:26:11;19.60;99.90
22071;DHT22;11200;51.488;6.668;2022-07-23T08:28:36;19.80;99.90
22071;DHT22;11200;51.488;6.668;2022-07-23T08:31:02;19.90;99.90
22071;DHT22;11200;51.488;6.668;2022-07-23T08:33:28;20.10;99.90
22071;DHT22;11200;51.488;6.668;2022-07-23T08:35:54;20.20;99.90
22071;DHT22;11200;51.488;6.668;2022-07-23T08:38:21;20.40;99.90
22071;DHT22;11200;51.488;6.668;2022-07-23T08:40:48;20.50;99.90
22071;DHT22;11200;51.488;6.668;2022-07-23T08:43:19;20.70;99.90
22071;DHT22;11200;51.488;6.668;2022-07-23T08:45:47;20.80;99.90
22071;DHT22;11200;51.488;6.668;2022-07-23T08:48:21;21.00;99.90
22071;DHT22;11200;51.488;6.668;2022-07-23T08:50:53;21.20;99.90
22071;DHT22;11200;51.488;6.668;2022-07-23T08:53:23;21.30;99.90
22071;DHT22;11200;51.488;6.668;2022-07-23T08:55:53;21.50;99.90
22071;DHT22;11200;51.488;6.668;2022-07-23T08:58:20;21.60;99.90
22071;DHT22;11200;51.488;6.668;2022-07-23T09:00:46;21.80;99.90
22071;DHT22;11200;51.488;6.668;2022-07-23T09:03:17;21.90;99.90
22071;DHT22;11200;51.488;6.668;2022-07-23T09:05:43;22.10;99.90
22071;DHT22;11200;51.488;6.668;2022-07-23T09:08:21;22.30;99.90
22071;DHT22;11200;51.488;6.668;2022-07-23T09:10:57;22.50;99.90
22071;DHT22;11200;51.488;6.668;2022-07-23T09:15:51;22.80;99.90
22071;DHT22;11200;51.488;6.668;2022-07-23T09:18:16;22.90;99.90
22071;DHT22;11200;51.488;6.668;2022-07-23T09:20:43;23.10;99.90
22071;DHT22;11200;51.488;6.668;2022-07-23T09:23:09;23.20;99.90
22071;DHT22;11200;51.488;6.668;2022-07-23T09:25:35;23.40;99.90
22071;DHT22;11200;51.488;6.668;2022-07-23T09:28:00;23.60;99.90
22071;DHT22;11200;51.488;6.668;2022-07-23T09:30:30;23.70;99.90
22071;DHT22;11200;51.488;6.668;2022-07-23T09:33:15;23.80;99.90
22071;DHT22;11200;51.488;6.668;2022-07-23T09:35:54;24.00;99.90
22071;DHT22;11200;51.488;6.668;2022-07-23T09:38:22;24.10;99.90
22071;DHT22;11200;51.488;6.668;2022-07-23T09:41:08;24.30;99.90
22071;DHT22;11200;51.488;6.668;2022-07-23T09:43:34;24.40;99.90
22071;DHT22;11200;51.488;6.668;2022-07-23T09:48:50;24.70;99.90
22071;DHT22;11200;51.488;6.668;2022-07-23T09:51:17;24.90;99.90
22071;DHT22;11200;51.488;6.668;2022-07-23T09:53:58;25.10;99.90
22071;DHT22;11200;51.488;6.668;2022-07-23T09:56:24;25.20;99.90
22071;DHT22;11200;51.488;6.668;2022-07-23T09:58:51;25.30;99.90
22071;DHT22;11200;51.488;6.668;2022-07-23T10:01:18;25.50;99.90
22071;DHT22;11200;51.488;6.668;2022-07-23T10:03:45;25.60;99.90
22071;DHT22;11200;51.488;6.668;2022-07-23T10:06:13;25.70;99.90
22071;DHT22;11200;51.488;6.668;2022-07-23T10:08:40;25.80;99.90
22071;DHT22;11200;51.488;6.668;2022-07-23T10:11:09;25.90;99.90
22071;DHT22;11200;51.488;6.668;2022-07-23T10:13:36;26.10;99.90
22071;DHT22;11200;51.488;6.668;2022-07-23T10:16:22;26.20;99.90
22071;DHT22;11200;51.488;6.668;2022-07-23T10:18:48;26.30;99.90
22071;DHT22;11200;51.488;6.668;2022-07-23T10:21:20;26.40;99.90
22071;DHT22;11200;51.488;6.668;2022-07-23T10:24:04;26.50;99.90
22071;DHT22;11200;51.488;6.668;2022-07-23T10:26:58;26.70;99.90
22071;DHT22;11200;51.488;6.668;2022-07-23T10:31:59;26.80;99.90
22071;DHT22;11200;51.488;6.668;2022-07-23T10:34:52;26.90;99.90
22071;DHT22;11200;51.488;6.668;2022-07-23T10:37:38;27.00;99.90
22071;DHT22;11200;51.488;6.668;2022-07-23T10:40:19;27.20;99.90
22071;DHT22;11200;51.488;6.668;2022-07-23T10:42:48;27.30;99.90
22071;DHT22;11200;51.488;6.668;2022-07-23T10:45:35;27.40;99.90
22071;DHT22;11200;51.488;6.668;2022-07-23T10:48:28;27.40;99.90
22071;DHT22;11200;51.488;6.668;2022-07-23T10:51:12;27.50;99.90
22071;DHT22;11200;51.488;6.668;2022-07-23T10:53:59;27.60;99.90
22071;DHT22;11200;51.488;6.668;2022-07-23T10:59:22;27.80;99.90
22071;DHT22;11200;51.488;6.668;2022-07-23T11:01:48;27.90;99.90
22071;DHT22;11200;51.488;6.668;2022-07-23T11:04:14;27.90;99.90
22071;DHT22;11200;51.488;6.668;2022-07-23T11:09:30;28.00;99.90
22071;DHT22;11200;51.488;6.668;2022-07-23T11:15:11;28.20;99.90
22071;DHT22;11200;51.488;6.668;2022-07-23T11:25:11;28.30;99.90
22071;DHT22;11200;51.488;6.668;2022-07-23T11:27:38;28.30;99.90
22071;DHT22;11200;51.488;6.668;2022-07-23T11:30:05;28.30;99.90
22071;DHT22;11200;51.488;6.668;2022-07-23T11:32:37;28.40;99.90
22071;DHT22;11200;51.488;6.668;2022-07-23T11:35:19;28.40;99.90
22071;DHT22;11200;51.488;6.668;2022-07-23T11:37:45;28.50;99.90
22071;DHT22;11200;51.488;6.668;2022-07-23T11:40:14;28.50;99.90
22071;DHT22;11200;51.488;6.668;2022-07-23T11:45:25;28.60;99.90
22071;DHT22;11200;51.488;6.668;2022-07-23T11:47:51;28.70;99.90
22071;DHT22;11200;51.488;6.668;2022-07-23T11:50:16;28.70;99.90
22071;DHT22;11200;51.488;6.668;2022-07-23T11:52:42;28.70;99.90
22071;DHT22;11200;51.488;6.668;2022-07-23T11:55:10;28.80;99.90
22071;DHT22;11200;51.488;6.668;2022-07-23T11:57:40;28.80;99.90
22071;DHT22;11200;51.488;6.668;2022-07-23T12:02:43;28.90;99.90
22071;DHT22;11200;51.488;6.668;2022-07-23T12:05:36;29.00;99.90
22071;DHT22;11200;51.488;6.668;2022-07-23T12:08:04;29.10;99.90
22071;DHT22;11200;51.488;6.668;2022-07-23T12:13:02;29.20;99.90
22071;DHT22;11200;51.488;6.668;2022-07-23T12:15:30;29.20;99.90
22071;DHT22;11200;51.488;6.668;2022-07-23T12:17:59;29.20;99.90
22071;DHT22;11200;51.488;6.668;2022-07-23T12:20:29;29.20;99.90
22071;DHT22;11200;51.488;6.668;2022-07-23T12:22:57;29.20;99.90
22071;DHT22;11200;51.488;6.668;2022-07-23T12:25:26;29.20;99.90
22071;DHT22;11200;51.488;6.668;2022-07-23T12:28:22;29.30;99.90
22071;DHT22;11200;51.488;6.668;2022-07-23T12:30:57;29.30;99.90
22071;DHT22;11200;51.488;6.668;2022-07-23T12:33:27;29.30;99.90
22071;DHT22;11200;51.488;6.668;2022-07-23T12:35:58;29.30;99.90
22071;DHT22;11200;51.488;6.668;2022-07-23T12:38:26;29.30;99.90
22071;DHT22;11200;51.488;6.668;2022-07-23T12:40:54;29.30;99.90
22071;DHT22;11200;51.488;6.668;2022-07-23T12:43:26;29.20;99.90
22071;DHT22;11200;51.488;6.668;2022-07-23T12:46:09;29.30;99.90
22071;DHT22;11200;51.488;6.668;2022-07-23T12:48:50;29.40;99.90
22071;DHT22;11200;51.488;6.668;2022-07-23T12:51:27;29.40;99.90
22071;DHT22;11200;51.488;6.668;2022-07-23T12:54:10;29.30;99.90
22071;DHT22;11200;51.488;6.668;2022-07-23T12:56:39;29.50;99.90
22071;DHT22;11200;51.488;6.668;2022-07-23T12:59:08;29.60;99.90
22071;DHT22;11200;51.488;6.668;2022-07-23T13:01:41;29.60;99.90
22071;DHT22;11200;51.488;6.668;2022-07-23T13:04:12;29.60;99.90
22071;DHT22;11200;51.488;6.668;2022-07-23T13:06:44;29.60;99.90
22071;DHT22;11200;51.488;6.668;2022-07-23T13:09:12;29.60;99.90
22071;DHT22;11200;51.488;6.668;2022-07-23T13:11:39;29.60;99.90
22071;DHT22;11200;51.488;6.668;2022-07-23T13:14:05;29.60;99.90
22071;DHT22;11200;51.488;6.668;2022-07-23T13:16:33;29.60;99.90
22071;DHT22;11200;51.488;6.668;2022-07-23T13:19:00;29.60;99.90
22071;DHT22;11200;51.488;6.668;2022-07-23T13:21:27;29.50;99.90
22071;DHT22;11200;51.488;6.668;2022-07-23T13:23:53;29.50;99.90
22071;DHT22;11200;51.488;6.668;2022-07-23T13:26:19;29.50;99.90
22071;DHT22;11200;51.488;6.668;2022-07-23T13:28:45;29.40;99.90
22071;DHT22;11200;51.488;6.668;2022-07-23T13:31:10;29.40;99.90
22071;DHT22;11200;51.488;6.668;2022-07-23T13:33:36;29.40;99.90
22071;DHT22;11200;51.488;6.668;2022-07-23T13:36:02;29.40;99.90
22071;DHT22;11200;51.488;6.668;2022-07-23T13:38:29;29.30;99.90
22071;DHT22;11200;51.488;6.668;2022-07-23T13:40:55;29.30;99.90
22071;DHT22;11200;51.488;6.668;2022-07-23T13:43:22;29.20;99.90
22071;DHT22;11200;51.488;6.668;2022-07-23T13:45:49;29.20;99.90
22071;DHT22;11200;51.488;6.668;2022-07-23T13:48:15;29.20;99.90
22071;DHT22;11200;51.488;6.668;2022-07-23T13:50:42;29.20;99.90
22071;DHT22;11200;51.488;6.668;2022-07-23T13:53:10;29.20;99.90
22071;DHT22;11200;51.488;6.668;2022-07-23T13:55:37;29.20;99.90
22071;DHT22;11200;51.488;6.668;2022-07-23T13:58:03;29.10;99.90
22071;DHT22;11200;51.488;6.668;2022-07-23T14:00:29;29.10;99.90
22071;DHT22;11200;51.488;6.668;2022-07-23T14:02:56;29.10;99.90
22071;DHT22;11200;51.488;6.668;2022-07-23T14:05:22;29.00;99.90
22071;DHT22;11200;51.488;6.668;2022-07-23T14:07:48;29.00;99.90
22071;DHT22;11200;51.488;6.668;2022-07-23T14:10:16;28.90;99.90
22071;DHT22;11200;51.488;6.668;2022-07-23T14:12:43;28.90;99.90
22071;DHT22;11200;51.488;6.668;2022-07-23T14:15:09;28.80;99.90
22071;DHT22;11200;51.488;6.668;2022-07-23T14:17:39;28.80;99.90
22071;DHT22;11200;51.488;6.668;2022-07-23T14:20:07;28.70;99.90
22071;DHT22;11200;51.488;6.668;2022-07-23T14:22:33;28.60;99.90
22071;DHT22;11200;51.488;6.668;2022-07-23T14:24:59;28.50;99.90
22071;DHT22;11200;51.488;6.668;2022-07-23T14:27:26;28.50;99.90
22071;DHT22;11200;51.488;6.668;2022-07-23T14:29:52;28.40;99.90
22071;DHT22;11200;51.488;6.668;2022-07-23T14:32:18;28.30;99.90
22071;DHT22;11200;51.488;6.668;2022-07-23T14:34:44;28.20;99.90
22071;DHT22;11200;51.488;6.668;2022-07-23T14:37:11;28.20;99.90
22071;DHT22;11200;51.488;6.668;2022-07-23T14:39:37;28.10;99.90
22071;DHT22;11200;51.488;6.668;2022-07-23T14:42:04;28.00;99.90
22071;DHT22;11200;51.488;6.668;2022-07-23T14:44:29;27.90;99.90
22071;DHT22;11200;51.488;6.668;2022-07-23T14:46:55;27.90;99.90
22071;DHT22;11200;51.488;6.668;2022-07-23T14:49:21;27.80;99.90
22071;DHT22;11200;51.488;6.668;2022-07-23T14:51:47;27.80;99.90
22071;DHT22;11200;51.488;6.668;2022-07-23T14:54:12;27.80;99.90
22071;DHT22;11200;51.488;6.668;2022-07-23T14:56:40;27.70;99.90
22071;DHT22;11200;51.488;6.668;2022-07-23T14:59:06;27.70;99.90
22071;DHT22;11200;51.488;6.668;2022-07-23T15:01:32;27.70;99.90
22071;DHT22;11200;51.488;6.668;2022-07-23T15:03:57;27.70;99.90
22071;DHT22;11200;51.488;6.668;2022-07-23T15:06:23;27.70;99.90
22071;DHT22;11200;51.488;6.668;2022-07-23T15:08:49;27.70;99.90
22071;DHT22;11200;51.488;6.668;2022-07-23T15:11:15;27.60;99.90
22071;DHT22;11200;51.488;6.668;2022-07-23T15:13:41;27.60;99.90
22071;DHT22;11200;51.488;6.668;2022-07-23T15:16:07;27.60;99.90
22071;DHT22;11200;51.488;6.668;2022-07-23T15:18:32;27.50;99.90
22071;DHT22;11200;51.488;6.668;2022-07-23T15:20:59;27.50;99.90
22071;DHT22;11200;51.488;6.668;2022-07-23T15:23:24;27.40;99.90
22071;DHT22;11200;51.488;6.668;2022-07-23T15:25:50;27.40;99.90
22071;DHT22;11200;51.488;6.668;2022-07-23T15:28:16;27.40;99.90
22071;DHT22;11200;51.488;6.668;2022-07-23T15:30:41;27.30;99.90
22071;DHT22;11200;51.488;6.668;2022-07-23T15:33:07;27.20;99.90
22071;DHT22;11200;51.488;6.668;2022-07-23T15:35:33;27.20;99.90
22071;DHT22;11200;51.488;6.668;2022-07-23T15:37:59;27.10;99.90
22071;DHT22;11200;51.488;6.668;2022-07-23T15:40:24;27.00;99.90
22071;DHT22;11200;51.488;6.668;2022-07-23T15:42:50;27.00;99.90
22071;DHT22;11200;51.488;6.668;2022-07-23T15:45:16;27.00;99.90
22071;DHT22;11200;51.488;6.668;2022-07-23T15:47:42;26.90;99.90
22071;DHT22;11200;51.488;6.668;2022-07-23T15:50:08;26.80;99.90
22071;DHT22;11200;51.488;6.668;2022-07-23T15:52:35;26.80;99.90
22071;DHT22;11200;51.488;6.668;2022-07-23T15:55:01;26.80;99.90
22071;DHT22;11200;51.488;6.668;2022-07-23T15:57:26;26.70;99.90
22071;DHT22;11200;51.488;6.668;2022-07-23T15:59:52;26.60;99.90
22071;DHT22;11200;51.488;6.668;2022-07-23T16:02:17;26.60;99.90
22071;DHT22;11200;51.488;6.668;2022-07-23T16:04:43;26.50;99.90